Blooming Grove, Texas
Current Conditions -  °F | °C
As of 2:53 AM on Saturday 22 Nov 2014 (Local Time) from KCRS Reporting Station
Overcast Overcast  
Wind Chill: 61°   Ceiling: 800
Heat Index: 61°   Visibility: 10mi
Dew Point: 57°   Wind: 15mph
Humidity: 87%   Direction: 140°SE
Pressure: 30.11"   Gusts: 21mph
Location:  32.09°N, 96.72°W
Report Text: KCRS 220853Z AUTO 14013G18KT 10SM OVC008 16/14 A3011 RMK AO2 SLP193 T01610139 58006
Loading
Personal Weather Stations






























Interactive Weather Map New forecast layout! Learn more

10-Day Weather Forecast

Advertisements
Track Severe Weather on mobile